Bruk link Alternativ webside om du vil se statistikk,rapport,grafer og analyse og mye mer.

Vårt webkamera more information My webcam


webkamera på Randaberg more information webcam on Randaberg


Nedbørsradar  rain snow radar


Besøk vår andre værside:

Alternativ webside

Alternativ mobil

Regnskvett RandabergWebsite of another weatherstation



Ikke nødvendig med spesiell oppmerksomhet.    Det er ingen advarsler

Nære METAR rapporter

   
ENHD - Haugesund
oppdatert: 05-04-2020 20:50
Klart  
Klart  
   Vind: SØ 10.3 m/s
Vind: SØ 10.3 m/s
Temperatur: 10°C
Wind Chill: 6°C
Duggpunkt: 1°C
Fuktighet: 54%
Barometer: 1017 hPa
Sikt: More than 10 km
Skydetaljer: Klart
ENHD 051850Z 14020KT CAVOK 10/01 Q1017
ENZV - Randaberg
oppdatert: 05-04-2020 20:20
Klart  
Klart  
   Vind: SØ 7.7 m/s
Vind: SØ 7.7 m/s
Temperatur: 11°C
Duggpunkt: 0°C
Fuktighet: 47%
Barometer: 1019 hPa
Sikt: More than 10 km
Skydetaljer: Klart
ENZV 051820Z 14015KT CAVOK 11/00 Q1019 TEMPO 15022G35KT
ENBR - Bergen
oppdatert: 05-04-2020 20:20
For det meste skyet  
For det meste skyet  
   Vind: SSØ 8.2 m/s
Vind: SSØ 8.2 m/s
Temperatur: 10°C
Wind Chill: 7°C
Duggpunkt: 1°C
Fuktighet: 54%
Barometer: 1017 hPa
Skyer: For det meste skyet
Sikt: More than 10 km
Skydetaljer: få skyer 1219.2 m,
Delvis Skyet 2133.6 m,
For det meste skyet 3962.4 m
ENBR 051820Z 15016KT 9999 FEW040 SCT070 BKN130 10/01 Q1017 TEMPO 16022G35KT RMK WIND 1200FT 14030KT
ENCN - Kristiansand
oppdatert: 05-04-2020 20:20
Klart  
Klart  
   Vind: ØNØ 3.1 m/s
Vind: ØNØ 3.1 m/s
Temperatur: 8°C
Wind Chill: 6°C
Duggpunkt: 2°C
Fuktighet: 66%
Barometer: 1023 hPa
Sikt: More than 10 km
Skydetaljer: Klart
ENCN 051820Z 07006KT CAVOK 08/02 Q1023
ENGM - Oslo
oppdatert: 05-04-2020 20:20
få skyer  
få skyer  
   Vind: Stille
Vind: Stille
Temperatur: 5°C
Duggpunkt: 3°C
Fuktighet: 87%
Barometer: 1024 hPa
Skyer: få skyer
Sikt: More than 10 km
Skydetaljer: få skyer 823 m
ENGM 051820Z 00000KT 9999 8000NW FEW027 05/03 Q1024 NOSIG
ENVA - Trondheim
oppdatert: 05-04-2020 20:20
Klart  
Klart  
   Vind: NØ 1.5 m/s
Vind: NØ 1.5 m/s
Temperatur: 6°C
Wind Chill: 5°C
Duggpunkt: -1°C
Fuktighet: 61%
Barometer: 1019 hPa
Sikt: More than 10 km
Skydetaljer: Klart
ENVA 051820Z 04003KT 010V090 CAVOK 06/M01 Q1019 RMK WIND 670FT 14010KT

Script utviklet av  Saratoga-weather.org Tilrettelagt for malen av  Weerstation Leuven

Du finner vår vær info også på:

European Weather Network

WeatherCloud

Weather Underground

Citizen Weather Observer Program (CWOP)

Utstyr vi bruker:

Værstsjon
Oregon scientific WMR 300

Værprogram
Meteobridge

Oregon scientific WMR 300

Meteobridge